Time;durP1;ratioP1;P1;durP2;ratioP2;P2;SDS_P1;SDS_P2;PMS_P1;PMS_P2;Temp;Humidity;BMP_temperature;BMP_pressure;BME280_temperature;BME280_humidity;BME280_pressure;Samples;Min_cycle;Max_cycle;Signal;HPM_P1;HPM_P2
2024/03/28 00:12:44;;;;;;;30.73;11.80;;;10.10;99.90;;;8.98;81.65;98241.66;5983774;24;20100;-86
2024/03/28 00:23:27;;;;;;;72.78;25.27;;;10.00;99.90;;;8.86;82.19;98208.53;6176336;22;20064;-85
2024/03/28 00:26:18;;;;;;;57.85;20.10;;;9.90;99.90;;;8.82;81.96;98197.44;6190797;23;20009;-86
2024/03/28 00:29:07;;;;;;;;;;;;;;;;;;;;;
2024/03/28 00:31:36;;;;;;;22.45;9.68;;;;;;;8.78;81.98;98185.50;6190392;23;20028;-86
2024/03/28 00:34:36;;;;;;;52.03;17.83;;;;;;;8.77;82.33;98189.94;6165756;23;20017;-86
2024/03/28 00:38:05;;;;;;;90.32;34.00;;;9.90;99.90;;;8.74;82.23;98191.97;6164782;23;20016;-86
2024/03/28 00:40:56;;;;;;;43.92;14.32;;;9.80;99.90;;;8.67;82.09;98183.75;6189888;23;20037;-87
2024/03/28 00:44:25;;;;;;;49.53;17.70;;;9.80;99.90;;;8.60;82.04;98178.16;6164894;23;20088;-87
2024/03/28 00:47:35;;;;;;;42.08;14.90;;;9.70;99.90;;;8.54;82.78;98180.44;6189726;23;20068;-86
2024/03/28 00:51:06;;;;;;;29.55;11.90;;;9.70;99.90;;;8.55;83.49;98171.59;6075914;23;20006;-86
2024/03/28 00:53:47;;;;;;;45.55;16.17;;;;;;;8.58;83.87;98166.13;6023364;23;20082;-86
2024/03/28 01:11:34;;;;;;;34.53;13.00;;;;;;;8.82;86.78;98161.53;5955872;24;20019;-87
2024/03/28 01:47:46;;;;;;;;;;;;;;;;;;;;;
2024/03/28 02:05:28;;;;;;;;;;;;;;;;;;;;;
2024/03/28 02:15:07;;;;;;;25.25;10.27;;;;;;;9.80;86.14;98101.84;5900686;24;20032;-87
2024/03/28 02:18:18;;;;;;;33.78;15.90;;;;;;;9.84;86.24;98100.63;5900934;24;20065;-87
2024/03/28 02:23:48;;;;;;;;;;;;;;;;;;;;;
2024/03/28 02:32:57;;;;;;;21.88;10.50;;;;;;;9.97;87.00;98103.88;6187397;22;20055;-85
2024/03/28 03:08:57;;;;;;;32.17;11.00;;;11.20;99.90;;;10.10;85.78;98058.13;6177183;22;20016;-86
2024/03/28 03:12:27;;;;;;;27.85;12.10;;;11.20;99.90;;;10.09;85.44;98057.28;6098056;23;20010;-87
2024/03/28 03:16:10;;;;;;;28.95;12.52;;;11.20;99.90;;;10.10;85.35;98050.22;5962113;24;20022;-86
2024/03/28 03:23:37;;;;;;;;;;;;;;;;;;;;;
2024/03/28 03:36:57;;;;;;;13.93;8.05;;;11.00;99.90;;;9.93;86.93;98049.06;6012026;23;20103;-87
2024/03/28 03:43:07;;;;;;;19.08;8.07;;;11.10;99.90;;;9.97;87.04;98038.16;6186494;22;20036;-86
2024/03/28 03:53:28;;;;;;;18.65;9.18;;;11.10;99.90;;;9.99;86.33;98015.19;6212682;22;20024;-85
2024/03/28 04:03:18;;;;;;;;;;;;;;;;;;;;;
2024/03/28 04:10:07;;;;;;;18.10;8.43;;;10.90;99.90;;;9.78;85.49;97970.59;6097598;23;20118;-85
2024/03/28 04:16:28;;;;;;;16.42;8.63;;;10.80;99.90;;;9.64;87.38;97971.78;5974386;24;20077;-85
2024/03/28 04:19:56;;;;;;;25.27;10.43;;;10.80;99.90;;;9.60;86.83;97961.69;5955561;24;20008;-85
2024/03/28 04:22:38;;;;;;;;;;;10.70;99.90;;;9.52;87.45;97957.06;6133217;23;20022;-86
2024/03/28 04:25:48;;;;;;;23.48;8.77;;;;;;;9.50;87.62;97961.63;6130961;23;19943;-86
2024/03/28 04:47:57;;;;;;;22.20;9.50;;;10.60;99.90;;;9.54;88.24;97936.75;6214089;22;20338;-84
2024/03/28 04:58:16;;;;;;;25.92;9.82;;;10.60;99.90;;;9.52;88.01;97925.56;5956007;24;20048;-84
2024/03/28 05:01:47;;;;;;;24.33;11.18;;;10.60;99.90;;;9.49;88.46;97925.84;5962282;23;20017;-86
2024/03/28 05:09:18;;;;;;;23.45;9.82;;;;;;;9.48;89.81;97936.47;5928086;24;20507;-85
2024/03/28 05:22:47;;;;;;;23.70;10.15;;;;;;;9.45;90.80;97913.94;6103006;23;20048;-85
2024/03/28 05:32:26;;;;;;;29.92;12.43;;;10.60;99.90;;;9.44;89.92;97896.53;6068248;23;20029;-87
2024/03/28 05:35:57;;;;;;;20.05;11.15;;;;;;;9.47;89.71;97900.69;6044941;23;20011;-86
2024/03/28 05:55:58;;;;;;;16.42;9.00;;;;;;;9.61;90.18;97890.63;5901552;24;20029;-85
2024/03/28 06:23:37;;;;;;;19.77;8.10;;;11.20;99.90;;;10.10;89.27;97874.09;6180506;23;20024;-86
2024/03/28 06:26:07;;;;;;;15.55;9.25;;;11.20;99.90;;;10.06;89.22;97877.00;6073456;23;20041;-87
2024/03/28 06:55:26;;;;;;;17.98;8.00;;;12.00;99.90;;;10.90;86.81;97903.66;6190095;23;20543;-86
2024/03/28 07:05:18;;;;;;;18.23;8.18;;;;;;;11.28;86.59;97895.63;6013526;23;20012;-86
2024/03/28 07:15:26;;;;;;;15.48;8.25;;;12.40;99.90;;;11.35;85.40;97897.69;6071864;23;20045;-86
2024/03/28 07:18:38;;;;;;;17.70;7.68;;;12.40;99.90;;;11.37;85.09;97903.63;6018551;23;20074;-86
2024/03/28 07:21:26;;;;;;;21.95;7.78;;;;;;;11.37;85.87;97901.00;5848251;24;20022;-87
2024/03/28 07:40:27;;;;;;;18.38;6.88;;;12.60;99.90;;;11.47;85.09;97902.63;5069442;28;20063;-86
2024/03/28 07:43:08;;;;;;;;;;;12.50;99.90;;;11.24;85.21;97888.97;5058581;28;20021;-87
2024/03/28 07:46:18;;;;;;;14.48;5.97;;;12.50;99.90;;;11.22;85.76;97898.00;5018804;28;19909;-88
2024/03/28 07:48:56;;;;;;;14.55;6.80;;;;;;;11.20;87.26;97892.88;4972991;28;20031;-86
2024/03/28 07:52:28;;;;;;;13.98;7.15;;;12.30;99.90;;;11.06;87.60;97896.00;4989967;28;20046;-87
2024/03/28 07:55:27;;;;;;;13.23;6.05;;;12.20;99.90;;;10.98;89.10;97886.16;4895004;29;20456;-86
2024/03/28 07:58:59;;;;;;;;;;;;;;;;;;;;;
2024/03/28 08:05:38;;;;;;;;;;;;;;;;;;;;;
2024/03/28 08:18:59;;;;;;;;;;;;;;;;;;;;;
2024/03/28 08:40:58;;;;;;;18.38;12.13;;;12.60;99.90;;;11.47;90.90;97910.53;4851584;29;20137;-88
2024/03/28 08:56:07;;;;;;;;;;;;;;;;;;;;;
2024/03/28 09:10:45;;;;;;;;;;;;;;;;;;;;;
2024/03/28 09:13:48;;;;;;;25.90;17.23;;;;;;;12.02;87.90;97927.31;4751146;30;20060;-85
2024/03/28 09:31:39;;;;;;;23.50;14.57;;;12.20;99.90;;;10.73;91.09;97948.13;4764971;30;20047;-85
2024/03/28 09:49:18;;;;;;;22.08;14.50;;;11.80;99.90;;;10.46;92.26;97957.59;4768900;30;20123;-86
2024/03/28 10:06:19;;;;;;;30.95;18.65;;;;;;;9.46;91.28;98002.28;4883105;29;20369;-86
2024/03/28 10:31:06;;;;;;;40.35;23.98;;;10.40;99.90;;;8.97;94.71;98022.16;4948310;29;20054;-84
2024/03/28 10:34:17;;;;;;;35.50;21.05;;;;;;;8.91;95.80;98022.66;4909202;29;20111;-83
2024/03/28 10:37:29;;;;;;;42.53;26.58;;;10.20;99.90;;;8.93;95.70;98057.50;4888053;29;20068;-83
2024/03/28 10:40:54;;;;;;;39.33;24.73;;;10.30;99.90;;;9.00;96.20;98058.63;4908886;29;20040;-83
2024/03/28 10:43:27;;;;;;;38.85;21.00;;;10.30;99.90;;;9.00;95.90;98079.63;4884414;29;20537;-84
2024/03/28 10:46:18;;;;;;;33.25;19.98;;;10.30;99.90;;;9.00;96.31;98079.63;4890384;29;20523;-85
2024/03/28 10:59:37;;;;;;;27.75;17.17;;;10.20;99.90;;;8.85;98.77;98067.78;4753222;30;20043;-82
2024/03/28 11:02:30;;;;;;;;;;;;;;;;;;;;;
2024/03/28 11:05:33;;;;;;;19.38;11.38;;;10.10;99.90;;;8.76;99.24;98064.09;4774646;30;20054;-84
2024/03/28 11:23:09;;;;;;;12.97;8.27;;;9.90;99.90;;;8.66;100.00;98081.53;4482956;27;18044617;-81
2024/03/28 11:25:49;;;;;;;11.02;7.03;;;9.90;99.90;;;8.63;100.00;98101.81;5042679;28;20693;-81
2024/03/28 11:28:43;;;;;;;6.75;4.18;;;;;;;8.58;100.00;98117.09;5057917;28;20102;-82
2024/03/28 11:31:33;;;;;;;8.48;5.00;;;9.90;99.90;;;8.60;100.00;98117.00;4975861;28;20042;-81
2024/03/28 11:36:58;;;;;;;6.50;3.63;;;;;;;8.55;100.00;98127.00;4937496;29;20031;-82
2024/03/28 11:39:34;;;;;;;8.98;5.13;;;;;;;8.60;100.00;98120.44;4938850;29;20144;-82
2024/03/28 11:42:18;;;;;;;5.68;3.95;;;9.90;99.90;;;8.66;100.00;98105.16;4933520;29;20095;-82
2024/03/28 11:44:59;;;;;;;9.00;3.70;;;9.90;99.90;;;8.67;100.00;98117.34;4951203;28;20055;-83
2024/03/28 11:47:26;;;;;;;7.85;4.30;;;;;;;8.66;100.00;98118.28;4951144;28;20622;-82
2024/03/28 11:50:17;;;;;;;6.18;3.92;;;;;;;8.71;100.00;98130.06;4933549;29;20046;-83
2024/03/28 11:52:56;;;;;;;5.63;3.70;;;10.00;99.90;;;8.73;99.85;98117.66;4902771;29;20080;-82
2024/03/28 11:55:37;;;;;;;4.82;3.35;;;10.10;99.90;;;8.83;99.68;98092.38;4897902;29;20052;-83
2024/03/28 11:58:29;;;;;;;5.78;3.38;;;10.10;99.90;;;8.89;99.12;98105.94;4891075;29;20119;-83
2024/03/28 12:01:17;;;;;;;5.30;3.15;;;10.20;99.90;;;9.06;99.35;98105.38;4916383;28;20048;-82
2024/03/28 12:04:39;;;;;;;4.72;2.60;;;10.30;99.90;;;9.17;98.57;98113.19;4954375;28;20589;-82
2024/03/28 12:06:54;;;;;;;3.88;2.88;;;10.50;99.90;;;9.38;98.03;98107.16;4947618;28;20038;-82
2024/03/28 12:09:29;;;;;;;4.45;2.90;;;10.70;99.90;;;9.59;97.11;98122.88;4987425;28;20635;-82
2024/03/28 12:12:29;;;;;;;4.05;2.63;;;10.80;99.90;;;9.70;95.42;98122.84;4960694;28;20038;-83
2024/03/28 12:15:10;;;;;;;5.15;2.90;;;;;;;9.73;93.57;98130.44;4972733;28;20072;-82
2024/03/28 12:17:59;;;;;;;4.35;2.92;;;10.90;99.90;;;9.68;92.73;98143.16;4981747;28;20133;-81
2024/03/28 12:20:40;;;;;;;5.95;3.00;;;;;;;9.57;91.25;98158.97;4945190;29;20122;-83
2024/03/28 12:23:07;;;;;;;3.88;2.97;;;;;;;9.53;91.08;98163.66;4939643;29;20511;-82
2024/03/28 12:25:45;;;;;;;6.00;3.05;;;10.80;99.90;;;9.59;91.53;98176.28;4938488;29;20051;-82
2024/03/28 12:28:30;;;;;;;4.50;3.20;;;10.80;99.90;;;9.46;90.86;98186.13;4923844;29;20039;-82
2024/03/28 12:31:31;;;;;;;;;;;;;;;;;;;;;
2024/03/28 12:34:16;;;;;;;5.50;3.42;;;;;;;9.28;90.78;98193.72;4969697;28;20050;-82
2024/03/28 12:36:47;;;;;;;5.18;3.35;;;10.60;99.90;;;9.24;91.38;98211.53;4954501;28;20561;-83
2024/03/28 12:39:39;;;;;;;5.95;3.92;;;10.60;99.90;;;9.36;91.43;98222.00;4951121;28;20043;-82
2024/03/28 12:42:25;;;;;;;4.68;3.33;;;10.60;99.90;;;9.52;90.92;98222.38;4954821;28;20111;-82
2024/03/28 12:44:59;;;;;;;4.95;2.97;;;10.90;99.90;;;9.87;92.00;98234.44;4956991;28;20043;-82
2024/03/28 12:47:24;;;;;;;4.82;2.67;;;11.10;99.90;;;10.12;89.99;98235.00;4953209;28;20101;-82
2024/03/28 12:49:50;;;;;;;5.40;3.42;;;11.30;99.90;;;10.36;89.05;98253.97;4939300;28;20548;-82
2024/03/28 12:52:22;;;;;;;4.53;3.42;;;;;;;10.52;86.41;98265.81;4941671;28;20035;-82
2024/03/28 12:54:48;;;;;;;4.82;3.63;;;11.60;99.90;;;10.59;85.16;98265.16;4955958;28;20057;-82
2024/03/28 12:57:19;;;;;;;3.88;3.03;;;11.80;99.90;;;10.80;84.74;98275.66;4954847;28;20043;-82
2024/03/28 13:00:08;;;;;;;5.47;2.90;;;12.00;99.90;;;10.82;83.11;98297.41;4966289;28;20102;-83
2024/03/28 13:02:37;;;;;;;3.60;2.90;;;12.00;99.90;;;10.79;81.90;98292.41;4881772;29;20087;-83
2024/03/28 13:05:13;;;;;;;4.90;3.10;;;;;;;10.77;81.40;98304.03;4882529;29;20040;-83
2024/03/28 13:07:51;;;;;;;4.13;2.70;;;;;;;10.60;80.60;98308.94;4899489;29;20087;-83
2024/03/28 13:10:18;;;;;;;2.80;2.00;;;11.80;99.90;;;10.44;81.25;98319.94;4930141;22;20810;-83
2024/03/28 13:12:47;;;;;;;3.25;1.95;;;11.70;99.90;;;10.34;81.11;98331.34;5070439;28;20040;-82
2024/03/28 13:15:38;;;;;;;3.30;1.58;;;11.70;99.90;;;10.43;81.40;98333.19;5066589;28;20088;-82
2024/03/28 13:18:06;;;;;;;2.38;1.70;;;;;;;10.64;82.04;98335.81;5085136;28;20066;-82
2024/03/28 13:20:41;;;;;;;2.03;1.63;;;;;;;10.96;80.87;98333.06;5063820;28;20034;-83
2024/03/28 13:23:07;;;;;;;3.13;1.75;;;12.20;99.90;;;11.33;80.66;98344.84;5066771;28;20040;-83
2024/03/28 13:25:47;;;;;;;1.73;1.17;;;;;;;11.49;78.37;98359.19;5064049;28;20036;-82
2024/03/28 13:28:22;;;;;;;3.05;1.58;;;;;;;11.65;78.12;98368.38;5086832;28;20070;-83
2024/03/28 13:30:50;;;;;;;2.28;1.27;;;;;;;11.61;76.66;98362.53;5107986;22;20138;-82
2024/03/28 13:33:16;;;;;;;2.63;1.15;;;12.70;99.90;;;11.63;76.42;98370.31;5063474;28;20040;-82
2024/03/28 13:35:51;;;;;;;1.83;0.95;;;12.80;99.90;;;11.61;74.99;98382.78;5060717;28;20030;-84
2024/03/28 13:38:17;;;;;;;1.15;0.98;;;12.70;99.90;;;11.55;73.48;98378.03;5060698;28;20115;-82
2024/03/28 13:40:46;;;;;;;1.33;0.90;;;;;;;11.46;73.23;98383.16;5055007;28;20033;-83
2024/03/28 13:43:18;;;;;;;3.45;0.80;;;;;;;11.52;72.98;98392.34;5052505;28;20079;-82
2024/03/28 13:45:46;;;;;;;0.82;0.60;;;;;;;11.50;71.08;98383.72;5043477;28;20122;-84
2024/03/28 13:48:24;;;;;;;0.80;0.50;;;12.70;99.90;;;11.54;71.31;98385.13;5058562;28;20025;-83
2024/03/28 13:50:50;;;;;;;0.73;0.52;;;12.70;99.90;;;11.67;72.12;98392.78;5066658;22;20090;-83
2024/03/28 13:53:17;;;;;;;0.40;0.40;;;;;;;11.76;71.68;98389.31;5065443;28;20029;-83
2024/03/28 13:55:46;;;;;;;0.50;0.50;;;;;;;11.98;72.03;98383.00;5069118;28;20537;-83
2024/03/28 13:58:16;;;;;;;1.58;0.70;;;13.10;99.90;;;12.17;70.39;98379.53;5063531;28;20045;-83
2024/03/28 14:00:57;;;;;;;2.05;0.60;;;13.30;99.90;;;12.40;69.04;98385.38;5053190;28;20040;-85
2024/03/28 14:03:26;;;;;;;2.90;0.70;;;;;;;12.72;69.38;98386.84;5066562;28;20037;-85
2024/03/28 14:05:58;;;;;;;2.42;0.50;;;13.80;99.90;;;12.77;67.93;98394.34;5068748;28;20612;-84
2024/03/28 14:08:28;;;;;;;0.82;0.50;;;13.80;99.90;;;12.81;67.22;98409.78;5070019;28;20552;-84
2024/03/28 14:11:05;;;;;;;1.80;0.60;;;13.70;99.90;;;12.53;64.30;98416.75;5079233;22;20558;-83
2024/03/28 14:13:34;;;;;;;5.40;0.70;;;;;;;12.44;65.99;98410.50;5069091;28;20029;-83
2024/03/28 14:16:06;;;;;;;2.45;0.60;;;;;;;12.22;63.31;98408.97;5068086;28;20115;-83
2024/03/28 14:18:36;;;;;;;1.25;0.73;;;13.40;99.90;;;12.24;64.82;98416.75;5064328;28;20057;-84
2024/03/28 14:21:11;;;;;;;1.98;0.80;;;13.50;99.90;;;12.31;64.63;98402.06;5053870;28;20046;-84
2024/03/28 14:23:37;;;;;;;3.25;1.02;;;13.50;99.90;;;12.49;64.22;98410.09;5031299;28;20060;-84
2024/03/28 14:26:06;;;;;;;1.98;0.88;;;13.70;99.90;;;12.64;63.67;98423.69;5040247;28;20116;-83
2024/03/28 14:28:39;;;;;;;1.63;0.70;;;;;;;12.62;62.86;98433.56;5049554;28;20036;-84
2024/03/28 14:31:09;;;;;;;1.60;0.95;;;13.70;99.90;;;12.44;62.82;98431.63;5067377;22;20044;-86
2024/03/28 14:33:47;;;;;;;3.20;0.80;;;;;;;12.43;62.41;98437.03;5070146;28;20033;-84
2024/03/28 14:36:14;;;;;;;3.85;0.90;;;13.60;99.90;;;12.47;62.13;98441.91;5062132;28;20028;-84
2024/03/28 14:38:49;;;;;;;1.15;0.50;;;;;;;12.67;61.80;98450.63;5053922;28;20040;-83
2024/03/28 14:41:18;;;;;;;1.88;0.85;;;13.90;99.90;;;12.84;61.32;98462.28;5063888;28;20029;-85
2024/03/28 14:43:54;;;;;;;6.15;1.17;;;13.90;99.90;;;12.78;60.68;98468.13;5064151;28;20458;-84
2024/03/28 14:46:19;;;;;;;1.67;0.70;;;13.90;99.90;;;12.69;59.72;98467.16;5051327;28;20071;-83
2024/03/28 14:48:45;;;;;;;7.68;1.23;;;13.90;99.90;;;12.81;60.37;98459.94;5044047;28;20032;-84
2024/03/28 14:51:20;;;;;;;1.15;0.80;;;14.00;99.90;;;12.86;60.61;98460.34;5061792;28;20017;-85
2024/03/28 14:53:46;;;;;;;2.47;0.60;;;14.00;99.90;;;12.92;60.90;98457.16;5067333;28;20077;-84
2024/03/28 14:56:12;;;;;;;3.08;1.15;;;14.10;99.90;;;13.02;61.52;98458.94;5070671;28;20390;-84
2024/03/28 14:58:38;;;;;;;9.45;0.80;;;14.20;99.90;;;13.13;61.10;98462.25;5067204;28;20043;-84
2024/03/28 15:01:11;;;;;;;1.67;1.00;;;;;;;13.26;60.90;98464.59;5046820;28;20028;-84
2024/03/28 15:03:37;;;;;;;3.17;1.10;;;14.30;99.90;;;13.26;60.36;98472.50;5061139;28;20150;-83
2024/03/28 15:06:03;;;;;;;2.35;1.20;;;14.40;99.90;;;13.31;60.94;98475.56;5063804;28;20029;-84
2024/03/28 15:08:38;;;;;;;2.83;1.30;;;14.40;99.90;;;13.30;60.80;98475.72;5065355;28;20063;-82
2024/03/28 15:11:07;;;;;;;2.10;1.30;;;14.40;99.90;;;13.40;61.85;98470.41;5066047;28;20531;-83
2024/03/28 15:13:35;;;;;;;2.30;1.00;;;14.50;99.90;;;13.28;60.75;98483.81;5059998;28;20027;-84
2024/03/28 15:16:07;;;;;;;1.88;1.05;;;14.50;99.90;;;13.37;61.34;98490.03;5066372;28;20021;-83
2024/03/28 15:18:33;;;;;;;2.35;1.63;;;;;;;13.36;61.41;98487.53;5041795;28;20110;-85
2024/03/28 15:20:59;;;;;;;2.58;1.40;;;;;;;13.36;61.49;98490.19;5057516;28;20029;-84
2024/03/28 15:23:26;;;;;;;3.28;1.65;;;;;;;13.25;61.79;98489.31;5056157;28;20108;-83
2024/03/28 15:26:01;;;;;;;3.53;1.60;;;;;;;13.13;61.99;98487.81;5056386;28;20136;-83
2024/03/28 15:28:30;;;;;;;3.70;1.40;;;14.30;99.90;;;13.07;61.72;98483.13;5083562;28;20033;-82
2024/03/28 15:31:03;;;;;;;3.17;1.48;;;14.20;99.90;;;13.05;62.54;98491.19;5061287;28;20017;-84
2024/03/28 15:33:29;;;;;;;2.03;1.33;;;14.10;99.90;;;12.92;62.09;98480.09;5076149;28;20088;-83
2024/03/28 15:35:56;;;;;;;4.35;1.40;;;14.10;99.90;;;12.87;63.06;98490.22;5063059;28;20108;-83
2024/03/28 15:38:24;;;;;;;2.30;1.35;;;14.00;99.90;;;12.77;62.68;98479.69;5050051;28;20029;-83
2024/03/28 15:40:57;;;;;;;5.13;1.27;;;13.90;99.90;;;12.76;63.56;98485.09;5061466;28;20033;-84
2024/03/28 15:43:25;;;;;;;2.42;1.92;;;;;;;12.76;64.02;98485.09;5044835;28;20044;-83
2024/03/28 15:45:53;;;;;;;4.53;1.75;;;13.90;99.90;;;12.72;64.42;98489.81;5056462;28;20045;-83
2024/03/28 15:48:22;;;;;;;1.92;1.20;;;13.80;99.90;;;12.65;63.96;98486.06;5047763;28;20032;-83
2024/03/28 15:50:50;;;;;;;3.03;1.08;;;13.70;99.90;;;12.55;64.03;98494.00;5063081;28;20490;-83
2024/03/28 15:53:19;;;;;;;1.77;0.88;;;13.70;99.90;;;12.42;64.25;98507.47;5055006;28;20043;-84
2024/03/28 15:55:54;;;;;;;10.00;1.85;;;13.60;99.90;;;12.34;64.67;98512.59;5062171;28;20093;-83
2024/03/28 15:58:20;;;;;;;1.15;0.90;;;13.50;99.90;;;12.21;65.54;98512.84;5076154;28;20595;-83
2024/03/28 16:00:46;;;;;;;2.22;0.98;;;12.20;99.90;;;12.11;66.00;98512.00;5062838;28;20082;-83
2024/03/28 16:03:18;;;;;;;1.67;1.20;;;;;;;12.11;66.83;98515.44;5049830;28;20032;-84
2024/03/28 16:05:49;;;;;;;5.03;0.95;;;;;;;11.97;67.02;98521.13;5088067;28;20463;-85
2024/03/28 16:08:15;;;;;;;0.82;0.50;;;13.10;99.90;;;11.70;66.43;98534.84;5061728;28;20039;-84
2024/03/28 16:10:48;;;;;;;3.25;0.82;;;13.00;99.90;;;11.59;67.21;98530.50;5063383;28;20131;-84
2024/03/28 16:13:17;;;;;;;1.30;0.85;;;;;;;11.48;67.91;98539.31;5061228;28;20035;-84
2024/03/28 16:15:43;;;;;;;2.00;1.00;;;;;;;11.35;68.17;98527.34;5060641;28;20040;-85
2024/03/28 16:18:17;;;;;;;5.80;1.17;;;12.70;99.90;;;11.26;69.40;98531.59;5060978;28;20469;-83
2024/03/28 16:20:45;;;;;;;0.57;0.50;;;12.50;99.90;;;11.11;69.43;98527.63;5071611;28;20024;-83
2024/03/28 16:23:11;;;;;;;5.45;0.80;;;12.40;99.90;;;10.97;69.46;98532.25;5065965;28;20025;-83
2024/03/28 16:25:39;;;;;;;2.70;0.55;;;12.30;99.90;;;10.87;69.55;98536.59;5061489;28;20031;-83
2024/03/28 16:28:11;;;;;;;3.10;2.05;;;12.20;99.90;;;10.86;69.55;98546.28;5061815;28;20028;-86
2024/03/28 16:30:37;;;;;;;2.60;0.60;;;12.10;99.90;;;10.77;69.90;98560.19;5059467;28;20032;-82
2024/03/28 16:33:03;;;;;;;0.88;0.60;;;12.00;99.90;;;10.62;69.62;98554.38;5064543;28;20020;-84
2024/03/28 16:35:31;;;;;;;1.67;0.90;;;12.00;99.90;;;10.63;70.43;98566.59;5065867;28;20020;-82
2024/03/28 16:38:04;;;;;;;5.82;0.55;;;11.80;99.90;;;10.44;69.48;98572.50;5067151;28;20033;-84
2024/03/28 16:40:50;;;;;;;1.00;0.38;;;;;;;10.31;70.28;98566.53;5067746;28;20559;-83
2024/03/28 16:46:41;;;;;;;1.23;0.25;;;;;;;10.03;71.37;98581.84;5019241;28;20033;-85
2024/03/28 16:49:37;;;;;;;0.90;0.40;;;;;;;9.94;72.24;98581.75;4976703;28;20082;-84
2024/03/28 16:52:27;;;;;;;2.63;0.47;;;11.20;99.90;;;9.81;72.49;98595.84;4972402;28;20129;-87
2024/03/28 16:55:06;;;;;;;1.63;0.60;;;11.10;99.90;;;9.72;73.08;98596.56;4961420;28;20619;-87
2024/03/28 16:57:39;;;;;;;0.80;0.40;;;11.10;99.90;;;9.69;72.91;98611.72;4955752;28;20481;-86
2024/03/28 17:00:41;;;;;;;;;;;;;;;;;;;;;
2024/03/28 17:03:15;;;;;;;4.72;0.52;;;;;;;9.75;73.41;98617.31;4900025;29;20053;-84
2024/03/28 17:06:07;;;;;;;1.23;0.40;;;11.00;99.90;;;9.76;73.16;98620.78;4902090;29;20050;-85
2024/03/28 17:08:58;;;;;;;0.63;0.30;;;11.00;99.90;;;9.66;72.67;98618.03;4886055;29;20068;-87
2024/03/28 17:11:27;;;;;;;0.93;0.43;;;10.90;99.90;;;9.61;72.74;98615.75;4898812;29;20076;-87
2024/03/28 17:14:19;;;;;;;3.15;0.47;;;10.90;99.90;;;9.56;73.60;98612.63;4893102;29;20600;-86
2024/03/28 17:16:50;;;;;;;1.48;0.60;;;10.80;99.90;;;9.51;73.26;98627.91;4901479;29;20040;-90
2024/03/28 17:19:28;;;;;;;1.33;0.70;;;;;;;9.53;73.79;98618.13;4901671;29;20060;-87
2024/03/28 17:22:04;;;;;;;0.60;0.60;;;;;;;9.52;73.99;98632.22;4885471;29;20032;-85
2024/03/28 17:24:30;;;;;;;1.00;0.87;;;;;;;9.57;73.97;98632.72;4867942;29;20044;-85
2024/03/28 17:26:56;;;;;;;4.82;1.08;;;10.80;99.90;;;9.54;74.10;98634.72;4943111;28;20042;-85
2024/03/28 17:29:21;;;;;;;2.90;1.58;;;10.80;99.90;;;9.53;74.13;98627.81;4944697;28;20053;-85
2024/03/28 17:31:57;;;;;;;3.35;1.35;;;10.70;99.90;;;9.48;74.35;98622.91;5024232;23;20037;-85
2024/03/28 17:35:00;;;;;;;12.07;3.42;;;;;;;9.47;74.58;98626.47;5037873;28;20025;-85
2024/03/28 17:37:49;;;;;;;15.20;8.88;;;10.70;99.90;;;9.46;75.01;98637.94;4998980;28;20030;-87
2024/03/28 17:40:18;;;;;;;2.45;1.30;;;;;;;9.47;75.17;98633.53;4897196;29;20048;-87
2024/03/28 17:42:59;;;;;;;3.35;1.20;;;;;;;9.48;75.20;98635.19;4933930;29;20033;-84
2024/03/28 17:45:51;;;;;;;41.38;21.30;;;;;;;9.48;75.31;98638.66;4936126;29;20098;-85
2024/03/28 17:48:19;;;;;;;3.55;1.40;;;;;;;9.47;75.66;98650.13;4934740;29;20071;-84
2024/03/28 17:51:09;;;;;;;1.85;1.10;;;10.70;99.90;;;9.50;75.45;98647.25;4932774;29;20047;-84
2024/03/28 17:53:38;;;;;;;1.33;0.77;;;;;;;9.48;75.87;98643.94;4861277;29;20057;-83
2024/03/28 17:56:11;;;;;;;0.90;0.75;;;;;;;9.52;76.16;98652.41;4864131;29;20140;-84
2024/03/28 17:58:42;;;;;;;1.58;1.00;;;;;;;9.51;76.51;98648.94;4863651;29;20135;-84
2024/03/28 18:01:36;;;;;;;4.72;1.02;;;;;;;9.47;76.31;98662.44;4879077;29;20120;-85
2024/03/28 18:04:03;;;;;;;2.53;1.17;;;10.60;99.90;;;9.43;76.88;98662.63;4852061;29;20044;-84
2024/03/28 18:06:39;;;;;;;2.30;1.10;;;10.70;99.90;;;9.51;76.90;98658.63;4859842;29;20124;-82
2024/03/28 18:09:07;;;;;;;1.45;1.10;;;10.70;99.90;;;9.50;76.89;98665.63;4849174;29;20047;-84
2024/03/28 18:11:42;;;;;;;1.80;0.85;;;;;;;9.49;76.78;98684.16;4863134;29;20029;-85
2024/03/28 18:14:09;;;;;;;6.97;2.05;;;10.60;99.90;;;9.45;76.93;98688.78;4867624;29;20044;-84
2024/03/28 18:16:36;;;;;;;10.30;5.60;;;10.60;99.90;;;9.44;76.67;98687.13;4877605;28;20047;-87
2024/03/28 18:19:16;;;;;;;2.58;1.27;;;;;;;9.28;75.69;98691.84;4951684;28;20038;-84
2024/03/28 18:22:05;;;;;;;1.30;0.80;;;10.60;99.90;;;9.23;75.02;98685.13;4956981;28;20059;-85
2024/03/28 18:24:49;;;;;;;0.98;0.50;;;10.50;99.90;;;9.16;75.42;98704.91;4961818;28;20125;-84
2024/03/28 18:27:26;;;;;;;1.08;0.80;;;10.40;99.90;;;9.04;75.79;98705.81;4966842;28;20031;-85
2024/03/28 18:29:52;;;;;;;0.75;0.57;;;10.30;99.90;;;8.94;76.36;98715.28;4959376;28;20048;-85
2024/03/28 18:32:18;;;;;;;1.58;0.50;;;10.30;99.90;;;8.91;76.57;98723.38;5022537;22;20042;-84
2024/03/28 18:35:14;;;;;;;3.45;0.50;;;10.30;99.90;;;8.87;76.68;98741.13;5006602;28;20030;-84
2024/03/28 18:37:49;;;;;;;4.70;0.60;;;;;;;8.89;76.97;98751.53;5008624;28;20114;-84
2024/03/28 18:40:18;;;;;;;0.47;0.38;;;;;;;8.91;76.83;98745.22;5003178;28;20037;-86
2024/03/28 18:42:57;;;;;;;0.55;0.50;;;;;;;8.94;76.92;98739.78;4974772;28;20045;-84
2024/03/28 18:45:36;;;;;;;1.15;0.50;;;10.20;99.90;;;8.93;76.13;98751.19;4957761;28;20460;-86
2024/03/28 18:48:03;;;;;;;0.40;0.40;;;10.20;99.90;;;8.93;76.28;98756.44;4959170;28;20047;-83
2024/03/28 18:50:44;;;;;;;1.48;0.40;;;;;;;8.92;76.22;98761.78;4975032;28;20424;-84
2024/03/28 18:53:29;;;;;;;;;;;;;;;;;;;;;
2024/03/28 18:56:03;;;;;;;0.40;0.30;;;10.20;99.90;;;8.95;76.41;98761.59;4973214;28;20039;-84
2024/03/28 18:58:38;;;;;;;1.05;0.45;;;;;;;8.88;76.28;98774.31;4942250;28;20043;-87
2024/03/28 19:01:07;;;;;;;0.82;0.50;;;10.10;99.90;;;8.83;76.46;98777.28;4947683;28;20130;-85
2024/03/28 19:03:48;;;;;;;0.88;0.60;;;10.10;99.90;;;8.82;76.66;98780.81;4952388;28;20031;-84
2024/03/28 19:06:55;;;;;;;0.70;0.60;;;10.10;99.90;;;8.79;76.55;98777.56;4957609;28;20039;-86
2024/03/28 19:09:34;;;;;;;1.40;0.73;;;10.00;99.90;;;8.62;76.80;98789.28;4956118;28;20027;-84
2024/03/28 19:12:00;;;;;;;1.55;0.43;;;10.00;99.90;;;8.58;76.71;98786.00;4950336;28;20070;-84
2024/03/28 19:14:39;;;;;;;1.33;1.00;;;9.90;99.90;;;8.58;77.07;98799.13;4956818;28;20058;-86
2024/03/28 19:17:30;;;;;;;3.85;1.33;;;9.90;99.90;;;8.57;76.63;98802.72;4952018;28;20077;-85
2024/03/28 19:20:10;;;;;;;0.88;0.40;;;9.80;99.90;;;8.51;77.08;98802.25;4946191;28;20077;-85
2024/03/28 19:23:08;;;;;;;0.40;0.30;;;;;;;8.40;77.23;98811.72;4948099;29;20047;-86
2024/03/28 19:25:52;;;;;;;1.98;0.40;;;;;;;8.39;76.84;98815.25;4932083;29;20043;-85
2024/03/28 19:28:29;;;;;;;0.60;0.50;;;9.80;99.90;;;8.47;76.64;98829.69;4935220;29;20043;-86
2024/03/28 19:31:46;;;;;;;1.30;0.30;;;9.70;99.90;;;8.41;76.36;98833.53;4956654;23;20060;-84
2024/03/28 19:34:12;;;;;;;3.20;0.40;;;;;;;8.35;75.94;98844.41;5023568;28;20042;-84
2024/03/28 19:37:19;;;;;;;3.58;0.40;;;;;;;8.37;75.63;98837.28;5011345;28;20038;-84
2024/03/28 19:39:55;;;;;;;2.05;0.32;;;9.70;99.90;;;8.42;76.02;98848.31;5000034;28;20049;-85
2024/03/28 19:42:29;;;;;;;0.50;0.40;;;;;;;8.46;75.78;98862.91;4992311;28;20121;-84
2024/03/28 19:45:47;;;;;;;1.50;0.40;;;9.70;99.90;;;8.47;75.75;98858.53;5007989;28;20046;-86
2024/03/28 19:48:34;;;;;;;3.78;0.52;;;9.70;99.90;;;8.41;75.51;98870.25;4942902;28;20068;-84
2024/03/28 19:51:09;;;;;;;;;;;9.70;99.90;;;8.34;75.63;98875.03;4976909;22;20056;-84
2024/03/28 19:53:39;;;;;;;1.85;0.30;;;;;;;8.29;75.38;98877.13;5005627;28;19987;-85
2024/03/28 19:56:42;;;;;;;0.40;0.40;;;9.60;99.90;;;8.27;75.78;98881.66;5018902;28;20025;-85
2024/03/28 19:59:08;;;;;;;3.83;0.30;;;;;;;8.22;75.34;98881.94;4963185;28;20536;-84
2024/03/28 20:01:37;;;;;;;1.05;0.40;;;;;;;8.16;75.23;98886.75;4973984;28;20038;-84
2024/03/28 20:04:16;;;;;;;2.83;0.40;;;;;;;8.19;76.28;98891.81;4954887;28;20054;-85